Time;durP1;ratioP1;P1;durP2;ratioP2;P2;SDS_P1;SDS_P2;PMS_P1;PMS_P2;Temp;Humidity;BMP_temperature;BMP_pressure;BME280_temperature;BME280_humidity;BME280_pressure;Samples;Min_cycle;Max_cycle;Signal;HPM_P1;HPM_P2
2021/07/22 00:03:00;;;;;;;13.63;4.43;;;;;;;18.18;85.07;100476.47;6229751;28;20044;-77
2021/07/22 00:06:01;;;;;;;6.33;4.23;;;;;;;18.13;83.59;100487.41;6245344;28;20037;-77
2021/07/22 00:09:02;;;;;;;8.35;4.25;;;;;;;18.15;83.93;100486.44;6229020;28;20476;-77
2021/07/22 00:12:03;;;;;;;5.35;4.25;;;;;;;18.12;85.19;100490.19;6245361;28;20053;-77
2021/07/22 00:15:05;;;;;;;10.95;4.80;;;;;;;18.11;85.76;100485.88;6246386;28;20042;-77
2021/07/22 00:18:06;;;;;;;8.98;4.70;;;;;;;17.92;87.67;100479.53;6229058;28;20059;-76
2021/07/22 00:21:07;;;;;;;8.93;4.83;;;;;;;18.00;86.83;100478.88;6245141;28;20045;-77
2021/07/22 00:24:08;;;;;;;11.20;4.50;;;;;;;18.01;87.14;100477.91;6246169;28;20056;-77
2021/07/22 00:27:08;;;;;;;7.68;4.55;;;;;;;18.01;86.00;100469.16;6228663;28;20396;-77
2021/07/22 00:30:10;;;;;;;7.85;4.82;;;;;;;18.04;85.90;100471.53;6228720;28;20409;-76
2021/07/22 00:33:11;;;;;;;10.73;4.97;;;;;;;17.93;86.38;100461.88;6246213;28;20048;-77
2021/07/22 00:36:12;;;;;;;12.95;5.03;;;;;;;18.00;86.29;100464.84;6246080;28;20061;-77
2021/07/22 00:39:15;;;;;;;9.13;4.95;;;;;;;17.90;87.77;100467.44;6246106;28;20048;-77
2021/07/22 00:42:16;;;;;;;11.57;5.18;;;;;;;17.91;86.85;100466.44;6228871;28;20506;-77
2021/07/22 00:45:17;;;;;;;8.90;4.93;;;;;;;17.87;87.86;100463.25;6249992;28;20051;-77
2021/07/22 00:48:18;;;;;;;13.52;5.40;;;;;;;17.80;87.28;100462.06;6250067;28;20069;-77
2021/07/22 00:51:18;;;;;;;11.68;5.30;;;;;;;17.75;88.00;100469.53;6249812;28;20119;-77
2021/07/22 00:54:21;;;;;;;10.15;5.38;;;;;;;17.85;86.75;100470.47;6251027;28;20488;-77
2021/07/22 00:57:22;;;;;;;8.18;5.00;;;;;;;17.90;86.39;100473.53;6250872;28;20045;-77
2021/07/22 01:00:23;;;;;;;7.10;4.68;;;;;;;17.97;86.73;100471.19;6249321;28;20057;-77
2021/07/22 01:03:24;;;;;;;10.82;4.97;;;;;;;17.98;87.41;100467.59;6249614;28;20113;-77
2021/07/22 01:06:25;;;;;;;10.27;5.40;;;;;;;17.94;88.88;100463.56;6250713;28;20041;-77
2021/07/22 01:09:25;;;;;;;7.90;4.82;;;;;;;17.99;89.33;100466.63;6249538;28;20043;-77
2021/07/22 01:12:26;;;;;;;8.20;4.82;;;;;;;18.00;88.42;100468.31;6250604;28;20049;-77
2021/07/22 01:15:27;;;;;;;6.17;4.40;;;;;;;18.00;88.13;100467.50;6250807;28;20057;-77
2021/07/22 01:18:27;;;;;;;7.40;4.83;;;;;;;18.01;88.25;100469.16;6249288;28;20053;-77
2021/07/22 01:21:28;;;;;;;10.50;5.17;;;;;;;17.99;88.36;100469.25;6232884;28;20064;-77
2021/07/22 01:24:29;;;;;;;9.40;5.00;;;;;;;17.97;88.93;100465.91;6249226;28;20050;-77
2021/07/22 01:27:29;;;;;;;8.85;5.22;;;;;;;17.94;89.10;100463.56;6250268;28;20076;-77
2021/07/22 01:30:30;;;;;;;11.83;5.33;;;;;;;17.90;88.98;100460.34;6232493;28;20435;-77
2021/07/22 01:33:31;;;;;;;9.50;5.60;;;;;;;17.81;88.68;100460.25;6248913;28;20049;-77
2021/07/22 01:36:32;;;;;;;11.60;5.50;;;;;;;17.81;88.33;100458.47;6232400;28;20069;-77
2021/07/22 01:39:32;;;;;;;11.43;5.57;;;;;;;17.69;88.68;100462.16;6249049;28;20068;-77
2021/07/22 01:42:33;;;;;;;11.48;5.35;;;;;;;17.70;88.15;100458.53;6248737;28;20068;-77
2021/07/22 01:45:34;;;;;;;7.45;5.20;;;;;;;17.80;87.66;100462.06;6248627;28;20103;-77
2021/07/22 01:48:35;;;;;;;8.90;5.18;;;;;;;17.86;87.03;100469.47;6248740;28;20049;-77
2021/07/22 01:51:35;;;;;;;8.63;5.28;;;;;;;17.90;86.83;100465.63;6248468;28;20037;-77
2021/07/22 01:54:36;;;;;;;9.63;5.45;;;;;;;17.94;85.90;100460.09;6248255;28;20041;-77
2021/07/22 01:57:37;;;;;;;9.68;4.50;;;;;;;17.99;85.14;100461.34;6249332;28;20459;-77
2021/07/22 02:00:37;;;;;;;11.43;4.93;;;;;;;17.97;84.92;100463.28;6249488;28;20037;-77
2021/07/22 02:03:38;;;;;;;12.60;4.72;;;;;;;17.98;83.80;100458.88;6249372;28;20037;-77
2021/07/22 02:06:39;;;;;;;6.65;4.38;;;;;;;17.98;82.84;100462.34;6249352;28;20045;-77
2021/07/22 02:09:40;;;;;;;9.45;4.68;;;;;;;17.96;84.39;100456.34;6249259;28;20044;-77
2021/07/22 02:12:41;;;;;;;8.00;4.93;;;;;;;18.01;84.40;100462.06;6249277;28;20037;-77
2021/07/22 02:15:42;;;;;;;8.38;4.47;;;;;;;17.84;85.01;100455.59;6249252;28;20149;-77
2021/07/22 02:18:42;;;;;;;10.43;4.88;;;;;;;17.79;85.06;100465.69;6248095;28;20041;-77
2021/07/22 02:21:44;;;;;;;11.90;5.38;;;;;;;17.73;85.18;100460.91;6249196;28;20141;-77
2021/07/22 02:24:45;;;;;;;8.52;5.20;;;;;;;17.80;84.71;100463.88;6248923;28;20038;-77
2021/07/22 02:27:45;;;;;;;9.65;5.05;;;;;;;17.84;84.31;100467.94;6247697;28;20053;-77
2021/07/22 02:30:46;;;;;;;7.15;5.10;;;;;;;17.79;85.12;100462.19;6247445;28;20120;-77
2021/07/22 02:33:47;;;;;;;12.15;5.80;;;;;;;17.75;85.54;100469.53;6231075;28;20128;-77
2021/07/22 02:36:48;;;;;;;8.65;5.35;;;;;;;17.78;85.75;100463.16;6248848;28;20480;-77
2021/07/22 02:39:48;;;;;;;10.38;5.20;;;;;;;17.75;85.52;100466.03;6248647;28;20037;-77
2021/07/22 02:42:49;;;;;;;8.07;5.10;;;;;;;17.77;85.65;100469.38;6230860;28;20045;-77
2021/07/22 02:45:50;;;;;;;7.68;5.65;;;;;;;17.78;85.12;100466.63;6248317;28;20046;-77
2021/07/22 02:48:56;;;;;;;10.80;5.60;;;;;;;17.81;85.14;100471.66;6248418;28;20477;-77
2021/07/22 02:51:57;;;;;;;9.45;4.88;;;;;;;17.81;85.41;100478.72;6248370;28;20484;-77
2021/07/22 02:54:57;;;;;;;10.10;5.57;;;;;;;17.76;85.29;100473.00;6247070;28;20045;-77
2021/07/22 02:58:03;;;;;;;7.68;5.22;;;;;;;17.76;85.29;100471.19;6248030;28;20046;-77
2021/07/22 03:01:08;;;;;;;6.68;5.10;;;;;;;17.75;85.40;100471.31;6247053;28;20492;-77
2021/07/22 03:04:09;;;;;;;9.40;5.15;;;;;;;17.77;85.28;100482.59;6247804;28;20073;-77
2021/07/22 03:07:10;;;;;;;15.40;5.88;;;;;;;17.70;84.71;100477.00;6247449;28;20052;-77
2021/07/22 03:10:11;;;;;;;10.43;5.45;;;;;;;17.76;84.84;100481.75;6248351;28;20064;-77
2021/07/22 03:13:12;;;;;;;8.80;5.68;;;;;;;17.76;84.43;100473.84;6247867;28;20037;-77
2021/07/22 03:16:13;;;;;;;11.13;5.18;;;;;;;17.76;84.22;100481.75;6246800;28;20053;-77
2021/07/22 03:19:13;;;;;;;7.93;4.47;;;;;;;17.77;83.82;100475.53;6247561;28;20110;-77
2021/07/22 03:22:15;;;;;;;9.57;4.95;;;;;;;17.80;82.53;100477.06;6246551;28;20072;-77
2021/07/22 03:25:15;;;;;;;7.10;4.90;;;;;;;17.77;83.26;100474.66;6246218;28;20049;-77
2021/07/22 03:28:16;;;;;;;12.10;4.85;;;;;;;17.80;82.92;100477.06;6246379;28;20045;-77
2021/07/22 03:31:17;;;;;;;10.65;5.32;;;;;;;17.83;83.35;100474.19;6246144;28;20041;-77
2021/07/22 03:34:18;;;;;;;10.43;5.05;;;;;;;17.85;83.19;100477.53;6229671;28;20048;-77
2021/07/22 03:37:19;;;;;;;9.88;5.13;;;;;;;17.88;82.67;100478.13;6213435;28;20042;-77
2021/07/22 03:40:19;;;;;;;9.25;5.10;;;;;;;17.86;82.44;100476.56;6245903;28;20088;-77
2021/07/22 03:43:20;;;;;;;8.00;4.63;;;;;;;17.83;83.87;100474.19;6229639;28;20088;-77
2021/07/22 03:46:22;;;;;;;8.25;5.03;;;;;;;17.91;83.25;100472.59;6247081;28;20151;-77
2021/07/22 03:49:23;;;;;;;;;;;;;;;17.99;82.77;100471.09;6246338;28;20045;-77
2021/07/22 03:52:23;;;;;;;8.35;4.90;;;;;;;18.01;83.25;100482.34;6245639;28;19928;-77
2021/07/22 03:55:26;;;;;;;11.73;4.90;;;;;;;18.02;82.95;100479.59;6246916;28;20151;-77
2021/07/22 03:58:27;;;;;;;10.70;4.90;;;;;;;17.89;83.08;100486.84;6245183;28;20054;-77
2021/07/22 04:01:28;;;;;;;10.33;5.57;;;;;;;17.93;84.27;100483.00;6246786;28;20037;-77
2021/07/22 04:04:28;;;;;;;9.38;5.40;;;;;;;18.01;82.66;100480.53;6246597;28;20447;-77
2021/07/22 04:07:29;;;;;;;9.15;5.50;;;;;;;18.05;83.18;100476.66;6246596;28;20440;-77
2021/07/22 04:10:30;;;;;;;7.47;4.20;;;;;;;18.10;82.94;100485.03;6228974;28;20045;-77
2021/07/22 04:13:30;;;;;;;9.77;5.65;;;;;;;18.03;83.50;100483.88;6228900;28;20091;-77
2021/07/22 04:16:34;;;;;;;7.90;5.00;;;;;;;18.12;82.81;100485.75;6245427;28;20556;-77
2021/07/22 04:19:35;;;;;;;10.27;4.90;;;;;;;18.13;82.82;100483.94;6245905;28;20095;-77
2021/07/22 04:22:36;;;;;;;8.80;4.97;;;;;;;18.03;84.25;100483.88;6246310;28;20045;-77
2021/07/22 04:25:36;;;;;;;10.63;5.10;;;;;;;18.18;83.01;100483.53;6246280;28;20045;-77
2021/07/22 04:28:37;;;;;;;12.45;5.55;;;;;;;18.17;81.99;100479.22;6245060;28;20049;-77
2021/07/22 04:31:38;;;;;;;7.67;5.20;;;;;;;18.25;82.00;100476.75;6246274;28;20052;-77
2021/07/22 04:34:39;;;;;;;8.60;4.82;;;;;;;18.22;82.43;100477.88;6228660;28;20045;-77
2021/07/22 04:37:40;;;;;;;10.20;4.65;;;;;;;18.27;81.80;100485.41;6228667;28;20079;-77
2021/07/22 04:40:40;;;;;;;11.50;5.82;;;;;;;18.32;81.13;100476.09;6228600;28;20077;-77
2021/07/22 04:43:41;;;;;;;8.90;5.50;;;;;;;18.40;81.91;100485.16;6244958;28;20042;-77
2021/07/22 04:46:42;;;;;;;7.32;4.82;;;;;;;18.35;82.06;100472.34;6246079;28;20079;-77
2021/07/22 04:49:42;;;;;;;8.35;5.10;;;;;;;18.36;81.02;100481.94;6244956;28;20038;-77
2021/07/22 04:52:43;;;;;;;13.40;5.18;;;;;;;18.44;81.73;100481.28;6244951;28;20044;-76
2021/07/22 04:55:44;;;;;;;12.27;5.28;;;;;;;18.53;80.39;100469.88;6228552;28;20041;-77
2021/07/22 04:58:45;;;;;;;11.00;4.93;;;;;;;18.56;79.77;100469.63;6244450;28;20102;-77
2021/07/22 05:01:45;;;;;;;14.83;4.97;;;;;;;18.59;80.26;100473.81;6245854;28;20103;-77
2021/07/22 05:04:46;;;;;;;6.90;4.78;;;;;;;18.64;81.15;100474.25;6246005;28;20487;-77
2021/07/22 05:07:47;;;;;;;11.05;5.00;;;;;;;18.76;80.93;100475.81;6212067;28;20045;-76
2021/07/22 05:10:47;;;;;;;10.13;4.82;;;;;;;18.86;79.11;100474.06;6228245;28;20073;-76
2021/07/22 05:13:48;;;;;;;7.50;4.80;;;;;;;18.92;78.52;100472.66;6244567;28;20501;-79
2021/07/22 05:16:49;;;;;;;8.03;4.90;;;;;;;18.90;80.62;100475.44;6228109;28;20073;-76
2021/07/22 05:19:50;;;;;;;8.77;4.80;;;;;;;19.02;78.89;100476.13;6245588;28;20099;-76
2021/07/22 05:22:50;;;;;;;8.93;4.70;;;;;;;19.02;78.46;100483.25;6245604;28;20477;-76
2021/07/22 05:25:51;;;;;;;11.60;5.37;;;;;;;19.11;77.03;100477.13;6244193;28;20041;-79
2021/07/22 05:28:52;;;;;;;10.93;5.00;;;;;;;19.18;76.61;100477.41;6245563;28;20673;-77
2021/07/22 05:31:52;;;;;;;6.25;4.60;;;;;;;19.25;78.32;100482.00;6250128;28;20411;-77
2021/07/22 05:34:53;;;;;;;7.23;4.70;;;;;;;19.35;79.53;100487.28;6232192;28;20080;-78
2021/07/22 05:37:54;;;;;;;11.13;4.87;;;;;;;19.37;76.37;100482.69;6249038;28;20076;-79
2021/07/22 05:40:57;;;;;;;9.60;4.80;;;;;;;19.41;78.54;100480.59;6232369;28;20045;-76
2021/07/22 05:43:58;;;;;;;8.90;4.75;;;;;;;19.32;76.98;100480.47;6248580;28;20041;-78
2021/07/22 05:46:59;;;;;;;6.27;4.07;;;;;;;19.45;75.94;100471.41;6248493;28;20076;-79
2021/07/22 05:50:00;;;;;;;6.53;4.10;;;;;;;19.40;74.12;100476.31;6231814;28;20085;-77
2021/07/22 05:53:00;;;;;;;6.77;4.50;;;;;;;19.47;74.48;100485.34;6249584;28;20456;-77
2021/07/22 05:56:01;;;;;;;8.07;4.70;;;;;;;19.55;75.67;100480.16;6248273;28;20045;-77
2021/07/22 05:59:02;;;;;;;7.40;4.30;;;;;;;19.64;76.74;100482.00;6249267;28;20045;-76
2021/07/22 06:02:04;;;;;;;9.43;4.83;;;;;;;19.77;75.92;100480.84;6248126;28;20511;-78
2021/07/22 06:05:05;;;;;;;7.32;4.30;;;;;;;19.80;74.98;100485.88;6231545;28;20046;-79
2021/07/22 06:08:06;;;;;;;10.13;4.53;;;;;;;19.79;75.65;100476.25;6249338;28;20133;-79
2021/07/22 06:11:07;;;;;;;7.63;4.77;;;;;;;19.93;77.74;100492.53;6249168;28;20056;-79
2021/07/22 06:14:08;;;;;;;10.02;4.80;;;;;;;20.02;77.63;100480.25;6249119;28;20050;-77
2021/07/22 06:17:09;;;;;;;8.60;5.47;;;;;;;19.95;76.45;100481.78;6231539;28;20447;-76
2021/07/22 06:20:10;;;;;;;9.03;4.50;;;;;;;20.04;74.46;100488.06;6247721;28;20049;-76
2021/07/22 06:23:11;;;;;;;9.93;4.50;;;;;;;20.21;73.35;100481.16;6247912;28;20045;-79
2021/07/22 06:26:12;;;;;;;8.97;4.80;;;;;;;20.25;72.08;100485.19;6248857;28;20124;-78
2021/07/22 06:29:13;;;;;;;8.00;4.50;;;;;;;20.33;70.97;100491.41;6247638;28;20400;-79
2021/07/22 06:32:13;;;;;;;7.57;4.27;;;;;;;20.47;71.85;100499.88;6231046;28;20393;-78
2021/07/22 06:35:17;;;;;;;8.90;4.60;;;;;;;20.51;71.38;100496.78;6231275;28;20042;-79
2021/07/22 06:38:18;;;;;;;11.67;4.67;;;;;;;20.59;72.10;100506.69;6248559;28;20044;-77
2021/07/22 06:41:20;;;;;;;6.40;4.45;;;;;;;20.46;72.96;100501.66;6246402;28;20049;-76
2021/07/22 06:44:21;;;;;;;6.40;4.47;;;;;;;20.50;73.20;100505.69;6248350;28;20056;-77
2021/07/22 06:47:21;;;;;;;11.83;4.67;;;;;;;20.57;75.39;100507.75;6230677;28;20483;-79
2021/07/22 06:50:22;;;;;;;6.80;4.33;;;;;;;20.59;72.37;100511.97;6247152;28;20502;-77
2021/07/22 06:53:23;;;;;;;10.60;4.30;;;;;;;20.65;74.35;100507.88;6247098;28;20168;-77
2021/07/22 06:56:24;;;;;;;8.57;4.57;;;;;;;20.70;72.70;100503.81;6246935;28;20064;-77
2021/07/22 06:59:24;;;;;;;10.53;4.77;;;;;;;20.76;75.21;100502.41;6246852;28;20081;-77
2021/07/22 07:02:25;;;;;;;7.87;4.97;;;;;;;20.85;73.72;100506.78;6230397;28;20038;-77
2021/07/22 07:05:26;;;;;;;10.00;4.83;;;;;;;20.90;73.18;100512.50;6247824;28;20124;-77
2021/07/22 07:08:27;;;;;;;11.17;4.67;;;;;;;20.95;77.68;100509.38;6230240;28;20092;-76
2021/07/22 07:11:28;;;;;;;9.48;4.95;;;;;;;21.05;75.47;100511.97;6230272;28;20048;-77
2021/07/22 07:14:28;;;;;;;9.97;5.00;;;;;;;21.11;71.10;100514.03;6247589;28;20045;-76
2021/07/22 07:17:29;;;;;;;6.70;4.70;;;;;;;21.03;70.38;100513.94;6247726;28;20056;-77
2021/07/22 07:20:31;;;;;;;9.10;4.87;;;;;;;21.23;74.55;100517.28;6247569;28;20033;-77
2021/07/22 07:23:35;;;;;;;8.48;4.47;;;;;;;21.32;76.23;100511.91;6230055;28;20041;-79
2021/07/22 07:26:35;;;;;;;7.93;4.78;;;;;;;21.38;77.11;100518.44;6247611;28;20069;-79
2021/07/22 07:29:36;;;;;;;9.70;5.00;;;;;;;21.41;73.42;100522.59;6246125;28;20480;-77
2021/07/22 07:32:37;;;;;;;10.27;4.80;;;;;;;21.40;72.66;100515.63;6246162;28;20045;-77
2021/07/22 07:35:39;;;;;;;10.47;4.40;;;;;;;21.33;70.86;100510.06;6245862;28;20064;-77
2021/07/22 07:38:43;;;;;;;8.43;4.60;;;;;;;21.40;74.27;100520.94;6214274;28;20045;-78
2021/07/22 07:41:43;;;;;;;9.20;4.63;;;;;;;21.59;69.30;100514.66;6229501;28;20451;-78
2021/07/22 07:44:44;;;;;;;9.63;4.40;;;;;;;21.86;70.88;100524.31;6247026;28;20144;-79
2021/07/22 07:47:48;;;;;;;7.43;4.77;;;;;;;21.99;68.04;100518.56;6246934;28;20064;-79
2021/07/22 07:50:48;;;;;;;11.45;4.47;;;;;;;22.18;65.05;100520.19;6246779;28;20041;-79
2021/07/22 07:53:50;;;;;;;6.70;3.80;;;;;;;22.21;65.10;100522.53;6229096;28;20463;-79
2021/07/22 07:56:51;;;;;;;6.38;4.10;;;;;;;22.30;62.64;100532.25;6228864;28;20045;-79
2021/07/22 07:59:52;;;;;;;8.67;4.20;;;;;;;22.37;64.09;100529.78;6245303;28;20053;-79
2021/07/22 08:02:58;;;;;;;6.83;4.60;;;;;;;22.52;68.29;100533.50;6228774;28;20870;-79
2021/07/22 08:05:59;;;;;;;6.95;3.90;;;;;;;22.50;63.47;100535.50;6246459;28;20041;-79
2021/07/22 08:08:59;;;;;;;6.27;4.17;;;;;;;22.48;63.71;100532.16;6246436;28;20045;-79
2021/07/22 08:12:01;;;;;;;7.47;4.30;;;;;;;22.57;64.27;100533.03;6245404;28;20053;-79
2021/07/22 08:15:04;;;;;;;6.13;3.80;;;;;;;22.73;61.15;100527.75;6228892;28;20052;-79
2021/07/22 08:18:05;;;;;;;7.85;4.07;;;;;;;22.89;62.44;100530.47;6246273;28;20041;-77
2021/07/22 08:21:06;;;;;;;8.00;4.53;;;;;;;23.06;61.40;100517.25;6245034;28;20052;-77
2021/07/22 08:24:07;;;;;;;9.30;4.20;;;;;;;23.29;61.57;100523.59;6228640;28;20477;-79
2021/07/22 08:27:08;;;;;;;9.38;4.43;;;;;;;23.48;59.10;100524.28;6245027;28;20073;-78
2021/07/22 08:30:10;;;;;;;5.75;3.63;;;;;;;23.63;58.52;100521.78;6244971;28;20041;-79
2021/07/22 08:33:10;;;;;;;5.80;3.70;;;;;;;23.73;57.19;100522.44;6245019;28;20057;-77
2021/07/22 08:36:11;;;;;;;9.57;3.63;;;;;;;23.74;60.25;100532.94;6228492;28;20049;-79
2021/07/22 08:39:12;;;;;;;3.97;3.23;;;;;;;23.69;57.42;100529.94;6244795;28;20061;-79
2021/07/22 08:42:13;;;;;;;10.52;3.85;;;;;;;23.54;57.81;100524.44;6245961;28;20550;-79
2021/07/22 08:45:16;;;;;;;5.50;3.25;;;;;;;23.53;58.84;100524.59;6228377;28;20041;-79
2021/07/22 08:48:17;;;;;;;6.50;3.55;;;;;;;23.30;55.21;100519.94;6244759;28;20061;-77
2021/07/22 08:51:20;;;;;;;8.83;3.73;;;;;;;23.52;56.51;100525.63;6246015;28;20447;-77
2021/07/22 08:54:21;;;;;;;6.13;3.50;;;;;;;23.45;55.60;100528.13;6245820;28;20053;-79
2021/07/22 08:57:33;;;;;;;4.33;3.40;;;;;;;23.46;54.09;100510.31;6245765;28;20049;-77
2021/07/22 09:00:33;;;;;;;6.68;3.42;;;;;;;23.66;55.67;100519.63;6245546;28;20053;-79
2021/07/22 09:03:34;;;;;;;7.72;3.65;;;;;;;23.67;56.31;100513.28;6244918;28;20052;-77
2021/07/22 09:06:35;;;;;;;9.40;3.20;;;;;;;23.73;55.42;100509.94;6232331;28;20073;-79
2021/07/22 09:09:36;;;;;;;6.80;3.70;;;;;;;23.81;52.35;100514.47;6249100;28;20076;-79
2021/07/22 09:12:41;;;;;;;4.80;3.00;;;;;;;23.86;53.67;100513.97;6249358;28;20412;-77
2021/07/22 09:15:52;;;;;;;4.65;3.10;;;;;;;23.86;57.24;100509.44;6250387;28;20488;-77
2021/07/22 09:18:52;;;;;;;4.75;2.83;;;;;;;23.91;51.33;100506.31;6249074;28;20041;-77
2021/07/22 09:21:53;;;;;;;9.03;3.67;;;;;;;23.85;52.43;100506.97;6250191;28;20473;-77
2021/07/22 09:24:54;;;;;;;4.63;3.17;;;;;;;24.00;51.84;100510.59;6250318;28;20068;-77
2021/07/22 09:27:59;;;;;;;7.77;3.20;;;;;;;24.05;49.11;100502.09;6248894;28;20037;-77
2021/07/22 09:31:07;;;;;;;6.15;3.25;;;;;;;24.24;49.52;100499.03;6248942;28;20073;-77
2021/07/22 09:34:24;;;;;;;7.35;3.20;;;;;;;24.47;52.34;100504.44;6248681;28;20456;-79
2021/07/22 09:37:25;;;;;;;6.30;3.17;;;;;;;24.58;48.02;100497.09;6249920;28;20075;-77
2021/07/22 09:40:26;;;;;;;9.07;3.27;;;;;;;24.68;45.36;100501.22;6249859;28;20053;-79
2021/07/22 09:43:45;;;;;;;8.57;3.53;;;;;;;24.63;49.07;100505.44;6249787;28;20282;-79
2021/07/22 09:46:46;;;;;;;8.25;3.33;;;;;;;24.55;46.17;100503.63;6248470;28;20424;-77
2021/07/22 09:49:46;;;;;;;9.23;2.95;;;;;;;24.40;45.93;100499.97;6248460;28;20050;-77
2021/07/22 09:52:49;;;;;;;7.13;3.13;;;;;;;24.17;42.44;100500.72;6231824;28;20064;-77
2021/07/22 09:55:56;;;;;;;7.40;3.38;;;;;;;24.20;43.58;100496.91;6249449;28;20120;-77
2021/07/22 09:58:57;;;;;;;10.23;3.22;;;;;;;24.31;44.21;100497.34;6248052;28;20192;-79
2021/07/22 10:02:04;;;;;;;6.50;3.17;;;;;;;24.74;48.99;100502.34;6248290;28;20041;-77
2021/07/22 10:05:06;;;;;;;4.50;3.05;;;;;;;25.08;43.67;100483.28;6249251;28;20111;-79
2021/07/22 10:08:08;;;;;;;4.90;2.90;;;;;;;25.17;41.15;100488.56;6231820;28;20151;-77
2021/07/22 10:11:08;;;;;;;;;;;;;;;25.13;43.18;100485.44;6215910;28;20124;-77
2021/07/22 10:14:09;;;;;;;9.63;3.63;;;;;;;25.24;45.06;100486.88;6247834;28;20368;-79
2021/07/22 10:17:10;;;;;;;4.85;2.97;;;;;;;25.19;41.96;100482.03;6246653;28;20117;-79
2021/07/22 10:20:12;;;;;;;7.00;3.10;;;;;;;25.08;41.20;100480.63;6249250;28;20065;-77
2021/07/22 10:23:12;;;;;;;6.47;3.28;;;;;;;24.95;40.64;100485.72;6249081;28;20068;-77
2021/07/22 10:26:13;;;;;;;7.55;3.10;;;;;;;24.98;42.46;100473.84;6231319;28;20045;-77
2021/07/22 10:29:14;;;;;;;9.48;3.72;;;;;;;24.83;43.42;100479.13;6247586;28;20105;-79
2021/07/22 10:32:21;;;;;;;7.90;3.57;;;;;;;24.90;45.89;100480.91;6231011;28;20116;-77
2021/07/22 10:35:26;;;;;;;8.55;2.95;;;;;;;25.02;46.03;100477.81;6247385;28;20124;-79
2021/07/22 10:38:47;;;;;;;3.83;3.10;;;;;;;24.93;48.15;100472.56;6248602;28;20056;-79
2021/07/22 10:41:48;;;;;;;5.85;3.72;;;;;;;24.67;46.33;100478.22;6247340;28;20045;-77
2021/07/22 10:44:48;;;;;;;6.30;3.80;;;;;;;24.72;47.91;100472.34;6248349;28;20041;-77
2021/07/22 10:47:58;;;;;;;5.27;3.30;;;;;;;24.85;49.47;100467.28;6248242;28;20061;-77
2021/07/22 10:51:03;;;;;;;6.18;4.00;;;;;;;25.02;46.99;100470.66;6248284;28;20277;-79
2021/07/22 10:54:04;;;;;;;7.10;3.40;;;;;;;25.40;46.99;100464.56;6231493;28;20044;-79
2021/07/22 10:57:06;;;;;;;6.40;3.30;;;;;;;25.58;46.18;100472.25;6248129;28;20038;-79
2021/07/22 11:00:08;;;;;;;4.70;2.97;;;;;;;25.60;43.46;100471.03;6246616;28;20053;-77
2021/07/22 11:03:09;;;;;;;6.53;3.38;;;;;;;25.70;45.52;100460.09;6246927;28;20483;-79
2021/07/22 11:06:11;;;;;;;3.92;3.17;;;;;;;25.66;46.03;100461.47;6247804;28;20037;-78
2021/07/22 11:09:12;;;;;;;4.90;3.30;;;;;;;25.71;45.90;100462.56;6247903;28;20047;-77
2021/07/22 11:12:48;;;;;;;7.33;3.60;;;;;;;25.85;49.05;100466.28;6246435;28;20093;-77
2021/07/22 11:15:49;;;;;;;6.18;3.50;;;;;;;26.03;45.77;100455.25;6246583;28;20057;-78
2021/07/22 11:18:51;;;;;;;7.37;3.53;;;;;;;25.93;44.85;100454.69;6247513;28;20049;-78
2021/07/22 11:21:52;;;;;;;4.28;3.05;;;;;;;26.12;42.62;100454.13;6246464;28;20413;-77
2021/07/22 11:25:02;;;;;;;4.68;2.90;;;;;;;26.31;36.31;100450.03;6247532;28;20412;-77
2021/07/22 11:28:03;;;;;;;4.90;2.90;;;;;;;26.37;38.32;100450.31;6247036;28;20065;-77
2021/07/22 11:31:07;;;;;;;5.70;2.85;;;;;;;26.66;35.15;100444.09;6229858;28;20044;-77
2021/07/22 11:34:08;;;;;;;5.60;3.10;;;;;;;26.31;39.09;100447.38;6246126;28;20100;-77
2021/07/22 11:37:17;;;;;;;5.47;3.00;;;;;;;26.30;38.96;100450.25;6246040;28;20038;-78
2021/07/22 11:40:18;;;;;;;7.13;2.85;;;;;;;26.50;39.04;100437.94;6247171;28;20110;-77
2021/07/22 11:43:39;;;;;;;4.45;3.10;;;;;;;26.62;37.90;100426.75;6229462;28;20045;-77
2021/07/22 11:46:41;;;;;;;4.78;3.28;;;;;;;26.89;41.60;100431.38;6246786;28;20077;-78
2021/07/22 11:49:42;;;;;;;3.30;2.75;;;;;;;27.10;40.58;100433.22;6246714;28;20046;-78
2021/07/22 11:52:43;;;;;;;8.60;3.45;;;;;;;27.25;39.31;100432.34;6245704;28;20041;-77
2021/07/22 11:55:43;;;;;;;4.32;2.90;;;;;;;27.35;37.59;100434.69;6246838;28;20064;-77
2021/07/22 11:58:51;;;;;;;4.57;3.22;;;;;;;27.34;38.48;100425.81;6246650;28;20072;-78
2021/07/22 12:01:53;;;;;;;5.63;3.17;;;;;;;27.43;37.17;100429.19;6229172;28;20175;-77
2021/07/22 12:04:54;;;;;;;5.15;3.03;;;;;;;27.39;33.25;100430.59;6245381;28;20045;-78
2021/07/22 12:08:14;;;;;;;6.68;3.13;;;;;;;27.42;30.90;100422.16;6213025;28;20053;-79
2021/07/22 12:11:15;;;;;;;8.48;3.00;;;;;;;27.74;35.79;100426.09;6246456;28;20064;-78
2021/07/22 12:14:36;;;;;;;5.47;2.90;;;;;;;27.86;33.38;100423.66;6246471;28;20053;-78
2021/07/22 12:17:37;;;;;;;4.45;2.83;;;;;;;28.14;33.26;100423.63;6228813;28;20075;-77
2021/07/22 12:20:38;;;;;;;;;;;;;;;28.46;33.70;100424.78;6229317;28;20057;-78
2021/07/22 12:23:39;;;;;;;7.03;3.10;;;;;;;28.53;31.83;100424.84;6228782;28;19921;-77
2021/07/22 12:26:40;;;;;;;4.75;2.60;;;;;;;28.71;32.44;100414.34;6245119;28;20136;-78
2021/07/22 12:29:45;;;;;;;9.88;2.97;;;;;;;29.79;30.64;100412.50;6228514;28;20038;-78
2021/07/22 12:32:50;;;;;;;4.50;2.92;;;;;;;31.23;28.99;100408.38;6245136;28;20037;-78
2021/07/22 12:35:52;;;;;;;8.57;3.30;;;;;;;33.14;27.09;100415.38;6246041;28;20069;-77
2021/07/22 12:39:13;;;;;;;3.33;2.60;;;;;;;33.86;24.52;100407.00;6244175;28;20045;-78
2021/07/22 12:42:14;;;;;;;5.90;2.78;;;;;;;34.71;23.47;100407.28;6244796;28;20041;-77
2021/07/22 12:45:15;;;;;;;4.88;2.63;;;;;;;35.46;23.41;100399.78;6244641;28;20053;-78
2021/07/22 12:48:16;;;;;;;5.25;2.90;;;;;;;35.35;22.96;100400.72;6245872;28;20491;-78
2021/07/22 12:51:19;;;;;;;3.65;2.72;;;;;;;35.83;22.15;100401.91;6228148;28;20455;-79
2021/07/22 12:54:19;;;;;;;5.80;2.70;;;;;;;36.11;21.67;100403.63;6228144;28;20411;-78
2021/07/22 12:57:40;;;;;;;4.45;2.75;;;;;;;36.43;22.08;100401.00;6228329;28;20047;-78
2021/07/22 13:00:42;;;;;;;5.32;3.15;;;;;;;36.52;22.22;100395.91;6245829;28;20188;-78
2021/07/22 13:03:45;;;;;;;4.22;2.70;;;;;;;36.24;22.01;100386.97;6245582;28;20057;-79
2021/07/22 13:06:45;;;;;;;4.38;2.88;;;;;;;34.81;22.62;100396.63;6244450;28;20072;-79
2021/07/22 13:09:46;;;;;;;4.25;2.47;;;;;;;35.40;23.45;100387.25;6245643;28;20045;-79
2021/07/22 13:12:47;;;;;;;4.53;2.80;;;;;;;34.74;23.37;100393.28;6244295;28;20195;-79
2021/07/22 13:15:48;;;;;;;2.88;2.40;;;;;;;33.98;24.85;100392.63;6244372;28;20046;-78
2021/07/22 13:18:50;;;;;;;8.93;3.08;;;;;;;34.16;26.76;100387.03;6228021;28;20056;-78
2021/07/22 13:21:51;;;;;;;4.70;2.70;;;;;;;33.23;26.62;100381.53;6244210;28;20042;-79
2021/07/22 13:24:52;;;;;;;5.93;2.72;;;;;;;32.02;28.94;100380.81;6228086;28;20580;-78
2021/07/22 13:27:52;;;;;;;3.80;2.60;;;;;;;31.56;27.46;100369.50;6228061;28;20096;-78
2021/07/22 13:30:54;;;;;;;6.68;2.92;;;;;;;31.17;29.91;100365.31;6244314;28;20045;-78
2021/07/22 13:33:54;;;;;;;5.85;3.10;;;;;;;30.67;29.34;100352.66;6244324;28;20045;-78
2021/07/22 13:36:57;;;;;;;4.70;3.00;;;;;;;30.27;30.30;100360.94;6244289;28;20123;-78
2021/07/22 13:39:57;;;;;;;4.55;3.03;;;;;;;30.22;31.24;100358.09;6245294;28;20103;-78
2021/07/22 13:43:01;;;;;;;4.65;3.00;;;;;;;30.41;32.88;100348.28;6244189;28;20042;-78
2021/07/22 13:46:02;;;;;;;7.05;3.03;;;;;;;29.78;31.76;100349.81;6245244;28;20123;-78
2021/07/22 13:49:03;;;;;;;3.88;3.00;;;;;;;28.98;31.51;100349.91;6244081;28;20106;-78
2021/07/22 13:52:04;;;;;;;;;;;;;;;29.02;32.78;100353.03;6248737;28;20037;-78
2021/07/22 13:55:08;;;;;;;8.70;3.25;;;;;;;29.03;33.26;100344.72;6248436;28;19921;-78
2021/07/22 13:58:09;;;;;;;5.00;3.30;;;;;;;28.64;33.90;100350.94;6248219;28;20061;-78
2021/07/22 14:01:10;;;;;;;4.32;3.08;;;;;;;27.77;34.39;100341.75;6216182;28;20498;-77
2021/07/22 14:04:10;;;;;;;4.95;2.95;;;;;;;28.29;34.87;100349.22;6248305;28;20037;-78
2021/07/22 14:07:11;;;;;;;6.53;3.28;;;;;;;28.33;33.88;100339.72;6248158;28;20077;-78